Weather History for Grand Rapids, MN

Change the Weather History Date:

Saturday, October 19, 2013

  Actual Average Record
Temperature  
Mean Temperature 34 °F -  
Max Temperature 42 °F 51 °F 78 °F (2000)
Min Temperature 26 °F 30 °F 8 °F (1972)
Degree Days  
Heating Degree Days 31    
Moisture  
Dew Point 30 °F    
Average Humidity 78    
Maximum Humidity 93    
Minimum Humidity 53    
Precipitation  
Precipitation 0.00 in - - ()
Sea Level Pressure  
Sea Level Pressure 29.70 in    
Wind  
Wind Speed 6 mph (WNW)    
Max Wind Speed 14 mph    
Max Gust Speed 18 mph    
Visibility 10 miles    
Events      
Averages and records for this station are not official NWS values.
T = Trace of Precipitation, MM = Missing Value Source: NWS Daily Summary

Daily Weather History Graph

Daily Weather History Graph

Search for Another Location

Airport:

Trip Planner

Search our weather history database for the weather conditions in past years. The results will help you decide how hot, cold, wet, or windy it might be!

Date:

Astronomy

Oct. 19, 2013 Rise Set
Actual Time 7:38 AM CDT 6:18 PM CDT
Civil Twilight 7:07 AM CDT 6:49 PM CDT
Nautical Twilight 6:31 AM CDT 7:25 PM CDT
Astronomical Twilight 5:56 AM CDT 8:00 PM CDT
Moon 6:41 PM CDT (10/19) 8:20 AM CDT (10/19)
Length of Visible Light 11h 42m
Length of Day
10h 40m
Waxing Gibbous, 99% of the Moon is Illuminated
Oct 19
Waxing Gibbous
Oct 26
Last Quarter
Nov 3
New
Nov 9
First Quarter
Nov 17
Full

Hourly Weather History & Observations

Time (CDT) Temp. Windchill Dew Point Humidity Pressure Visibility Wind Dir Wind Speed Gust Speed Precip Events Conditions
12:15 AM 37.4 °F 33.8 °F 30.2 °F 75% 29.74 in 10.0 mi SW 4.6 mph - N/A   Mostly Cloudy
12:35 AM 37.4 °F 32.8 °F 30.2 °F 75% 29.74 in 10.0 mi SSW 5.8 mph - N/A   Overcast
12:55 AM 37.4 °F 32.8 °F 32.0 °F 81% 29.73 in 10.0 mi SSW 5.8 mph - N/A   Overcast
1:15 AM 37.4 °F 33.8 °F 32.0 °F 81% 29.72 in 10.0 mi SSW 4.6 mph - N/A   Overcast
1:35 AM 35.6 °F 32.8 °F 30.2 °F 81% 29.72 in 10.0 mi SSW 3.5 mph - N/A   Mostly Cloudy
1:55 AM 35.6 °F 32.8 °F 30.2 °F 81% 29.72 in 10.0 mi SSW 3.5 mph - N/A   Mostly Cloudy
2:15 AM 35.6 °F 30.7 °F 32.0 °F 87% 29.72 in 10.0 mi SSW 5.8 mph - N/A   Overcast
2:35 AM 37.4 °F 33.8 °F 32.0 °F 81% 29.71 in 10.0 mi South 4.6 mph - N/A   Overcast
2:55 AM 35.6 °F 30.7 °F 30.2 °F 81% 29.70 in 10.0 mi South 5.8 mph - N/A   Overcast
3:15 AM 35.6 °F 31.7 °F 30.2 °F 81% 29.69 in 10.0 mi South 4.6 mph - N/A   Overcast
3:35 AM 35.6 °F 31.7 °F 30.2 °F 81% 29.69 in 10.0 mi South 4.6 mph - N/A   Overcast
3:55 AM 35.6 °F 30.7 °F 32.0 °F 87% 29.68 in 10.0 mi South 5.8 mph - N/A   Overcast
4:15 AM 35.6 °F 31.7 °F 32.0 °F 87% 29.67 in 10.0 mi South 4.6 mph - N/A   Overcast
4:35 AM 35.6 °F 32.8 °F 32.0 °F 87% 29.67 in 10.0 mi SSW 3.5 mph - N/A   Overcast
4:55 AM 35.6 °F 32.8 °F 32.0 °F 87% 29.66 in 9.0 mi SSW 3.5 mph - N/A   Overcast
5:15 AM 35.6 °F - 32.0 °F 87% 29.66 in 10.0 mi Calm Calm - N/A   Overcast
5:35 AM 35.6 °F 32.8 °F 32.0 °F 87% 29.66 in 10.0 mi South 3.5 mph - N/A   Overcast
5:55 AM 35.6 °F - 32.0 °F 87% 29.66 in 10.0 mi Calm Calm - N/A   Overcast
6:15 AM 35.6 °F - 32.0 °F 87% 29.65 in 10.0 mi Calm Calm - N/A   Overcast
6:35 AM 35.6 °F - 33.8 °F 93% 29.66 in 10.0 mi Calm Calm - N/A   Overcast
6:55 AM 35.6 °F - 32.0 °F 87% 29.66 in 10.0 mi Calm Calm - N/A   Overcast
7:15 AM 35.6 °F 32.8 °F 32.0 °F 87% 29.66 in 10.0 mi WSW 3.5 mph - N/A   Overcast
7:35 AM 35.6 °F 32.8 °F 32.0 °F 87% 29.66 in 10.0 mi WSW 3.5 mph - N/A   Overcast
7:55 AM 35.6 °F 31.7 °F 33.8 °F 93% 29.66 in 9.0 mi West 4.6 mph - N/A   Overcast
8:15 AM 35.6 °F 30.7 °F 33.8 °F 93% 29.66 in 10.0 mi WNW 5.8 mph - N/A   Overcast
8:35 AM 35.6 °F 30.7 °F 33.8 °F 93% 29.66 in 10.0 mi WNW 5.8 mph - N/A   Overcast
8:55 AM 35.6 °F 30.7 °F 33.8 °F 93% 29.66 in 10.0 mi NW 5.8 mph - N/A   Overcast
9:15 AM 35.6 °F 29.9 °F 33.8 °F 93% 29.67 in 10.0 mi NW 6.9 mph - N/A   Overcast
9:35 AM 35.6 °F 29.2 °F 33.8 °F 93% 29.66 in 10.0 mi NW 8.1 mph - N/A   Overcast
9:55 AM 37.4 °F 31.4 °F 33.8 °F 87% 29.67 in 10.0 mi NW 8.1 mph - N/A   Overcast
10:15 AM 37.4 °F 32.1 °F 32.0 °F 81% 29.67 in 10.0 mi NNW 6.9 mph - N/A   Overcast
10:35 AM 37.4 °F 32.1 °F 33.8 °F 87% 29.67 in 10.0 mi NNW 6.9 mph - N/A   Mostly Cloudy
10:55 AM 37.4 °F 30.8 °F 28.4 °F 70% 29.67 in 10.0 mi NW 9.2 mph - N/A   Overcast
11:15 AM 37.4 °F 30.8 °F 30.2 °F 75% 29.67 in 10.0 mi NNW 9.2 mph - N/A   Overcast
11:35 AM 39.2 °F 32.0 °F 28.4 °F 65% 29.67 in 10.0 mi NNW 11.5 mph - N/A   Overcast
11:55 AM 39.2 °F 32.0 °F 30.2 °F 70% 29.67 in 10.0 mi NNW 11.5 mph - N/A   Mostly Cloudy
12:15 PM 39.2 °F 34.2 °F 28.4 °F 65% 29.68 in 10.0 mi North 6.9 mph - N/A   Overcast
12:35 PM 39.2 °F 33.0 °F 28.4 °F 65% 29.68 in 10.0 mi North 9.2 mph - N/A   Overcast
12:55 PM 41.0 °F 34.3 °F 28.4 °F 61% 29.68 in 10.0 mi NNW 11.5 mph 16.1 mph N/A   Mostly Cloudy
1:15 PM 39.2 °F 32.5 °F 26.6 °F 61% 29.67 in 10.0 mi NW 10.4 mph - N/A   Mostly Cloudy
1:35 PM 41.0 °F 33.5 °F 28.4 °F 61% 29.67 in 10.0 mi NW 13.8 mph - N/A   Overcast
1:55 PM 41.0 °F 33.9 °F 28.4 °F 61% 29.67 in 10.0 mi NW 12.7 mph - N/A   Overcast
2:15 PM 41.0 °F 34.3 °F 28.4 °F 61% 29.68 in 10.0 mi NW 11.5 mph - N/A   Overcast
2:35 PM 41.0 °F 34.7 °F 28.4 °F 61% 29.68 in 10.0 mi NNW 10.4 mph 17.3 mph N/A   Overcast
2:55 PM 41.0 °F 34.3 °F 24.8 °F 53% 29.68 in 10.0 mi NNW 11.5 mph - N/A   Scattered Clouds
3:15 PM 41.0 °F 34.3 °F 28.4 °F 61% 29.69 in 10.0 mi WNW 11.5 mph 18.4 mph N/A   Mostly Cloudy
3:35 PM 41.0 °F 35.2 °F 28.4 °F 61% 29.70 in 10.0 mi WNW 9.2 mph 17.3 mph N/A   Mostly Cloudy
3:55 PM 39.2 °F 31.6 °F 30.2 °F 70% 29.70 in 10.0 mi NW 12.7 mph - N/A   Mostly Cloudy
4:15 PM 42.8 °F 37.0 °F 30.2 °F 61% 29.70 in 10.0 mi WNW 10.4 mph - N/A   Overcast
4:35 PM 42.8 °F 37.0 °F 28.4 °F 57% 29.70 in 10.0 mi WNW 10.4 mph 16.1 mph N/A   Overcast
4:55 PM 42.8 °F 38.0 °F 28.4 °F 57% 29.71 in 10.0 mi West 8.1 mph - N/A   Mostly Cloudy
5:15 PM 41.0 °F 34.7 °F 28.4 °F 61% 29.71 in 10.0 mi West 10.4 mph - N/A   Overcast
5:35 PM 39.2 °F 31.6 °F 28.4 °F 65% 29.72 in 10.0 mi WNW 12.7 mph 18.4 mph N/A   Overcast
5:55 PM 39.2 °F 33.0 °F 30.2 °F 70% 29.73 in 10.0 mi WNW 9.2 mph - N/A   Overcast
6:15 PM 37.4 °F 31.4 °F 30.2 °F 75% 29.73 in 10.0 mi WNW 8.1 mph - N/A   Scattered Clouds
6:35 PM 37.4 °F 31.4 °F 28.4 °F 70% 29.73 in 10.0 mi WNW 8.1 mph - N/A   Clear
6:55 PM 37.4 °F 32.1 °F 28.4 °F 70% 29.74 in 10.0 mi WNW 6.9 mph - N/A   Scattered Clouds
7:15 PM 37.4 °F 31.4 °F 28.4 °F 70% 29.74 in 10.0 mi WNW 8.1 mph - N/A   Scattered Clouds
7:35 PM 35.6 °F 29.9 °F 28.4 °F 75% 29.74 in 10.0 mi WNW 6.9 mph - N/A   Partly Cloudy
7:55 PM 35.6 °F 29.9 °F 28.4 °F 75% 29.74 in 10.0 mi WNW 6.9 mph - N/A   Clear
8:15 PM 35.6 °F 30.7 °F 28.4 °F 75% 29.74 in 10.0 mi WNW 5.8 mph - N/A   Clear
8:35 PM 33.8 °F 28.6 °F 28.4 °F 81% 29.74 in 10.0 mi WNW 5.8 mph - N/A   Clear
8:55 PM 33.8 °F 29.6 °F 28.4 °F 81% 29.74 in 10.0 mi West 4.6 mph - N/A   Clear
9:15 PM 33.8 °F 28.6 °F 28.4 °F 81% 29.74 in 10.0 mi WNW 5.8 mph - N/A   Clear
9:35 PM 32.0 °F 25.6 °F 26.6 °F 80% 29.74 in 10.0 mi NW 6.9 mph - N/A   Clear
9:55 PM 30.2 °F 26.7 °F 24.8 °F 80% 29.74 in 10.0 mi WNW 3.5 mph - N/A   Clear
10:15 PM 28.4 °F - 26.6 °F 93% 29.74 in 10.0 mi Calm Calm - N/A   Clear
10:35 PM 28.4 °F - 26.6 °F 93% 29.74 in 10.0 mi Calm Calm - N/A   Clear
10:55 PM 28.4 °F - 24.8 °F 86% 29.74 in 10.0 mi Calm Calm - N/A   Clear
11:15 PM 26.6 °F 22.6 °F 23.0 °F 86% 29.74 in 10.0 mi South 3.5 mph - N/A   Clear
11:35 PM 26.6 °F - 24.8 °F 93% 29.74 in 10.0 mi Calm Calm - N/A   Clear
11:55 PM 26.6 °F - 24.8 °F 93% 29.74 in 10.0 mi Calm Calm - N/A   Clear